Time;durP1;ratioP1;P1;durP2;ratioP2;P2;SDS_P1;SDS_P2;PMS_P1;PMS_P2;Temp;Humidity;BMP_temperature;BMP_pressure;BME280_temperature;BME280_humidity;BME280_pressure;Samples;Min_cycle;Max_cycle;Signal;HPM_P1;HPM_P2
2021/04/15 00:00:33;;;;;;;;;;;;;;;;;;5042776;28;19947;-65
2021/04/15 00:02:59;;;;;;;;;;;;;;;;;;5044569;28;20388;-66
2021/04/15 00:05:26;;;;;;;;;;;;;;;;;;5046815;28;19984;-65
2021/04/15 00:07:52;;;;;;;;;;;;;;;;;;5049253;28;20387;-66
2021/04/15 00:10:19;;;;;;;;;;;;;;;;;;5045600;28;19932;-65
2021/04/15 00:12:45;;;;;;;;;;;;;;;;;;5047292;28;19925;-65
2021/04/15 00:15:12;;;;;;;;;;;;;;;;;;5049781;28;20106;-64
2021/04/15 00:17:38;;;;;;;;;;;;;;;;;;5037932;28;19924;-66
2021/04/15 00:20:05;;;;;;;;;;;;;;;;;;5038085;28;19932;-66
2021/04/15 00:22:31;;;;;;;;;;;;;;;;;;5051442;28;19925;-65
2021/04/15 00:24:58;;;;;;;;;;;;;;;;;;5044849;28;19933;-65
2021/04/15 00:27:24;;;;;;;;;;;;;;;;;;5055911;28;19960;-64
2021/04/15 00:29:51;;;;;;;;;;;;;;;;;;5050449;28;20396;-65
2021/04/15 00:32:17;;;;;;;;;;;;;;;;;;5046969;28;19929;-66
2021/04/15 00:34:44;;;;;;;;;;;;;;;;;;5051873;28;19937;-65
2021/04/15 00:37:10;;;;;;;;;;;;;;;;;;5048124;28;20024;-66
2021/04/15 00:39:37;;;;;;;;;;;;;;;;;;5052622;28;20026;-65
2021/04/15 00:42:03;;;;;;;;;;;;;;;;;;5056645;28;19936;-67
2021/04/15 00:44:30;;;;;;;;;;;;;;;;;;5041596;28;19987;-67
2021/04/15 00:46:57;;;;;;;;;;;;;;;;;;5040223;28;19933;-66
2021/04/15 00:49:24;;;;;;;;;;;;;;;;;;5047487;28;20368;-66
2021/04/15 00:51:50;;;;;;;;;;;;;;;;;;5046448;28;19929;-65
2021/04/15 00:54:17;;;;;;;;;;;;;;;;;;5042057;28;19939;-64
2021/04/15 00:56:43;;;;;;;;;;;;;;;;;;5040843;28;19925;-64
2021/04/15 00:59:10;;;;;;;;;;;;;;;;;;5045349;28;19928;-65
2021/04/15 01:01:36;;;;;;;;;;;;;;;;;;5040727;28;20415;-65
2021/04/15 01:04:03;;;;;;;;;;;;;;;;;;5041242;28;19932;-65
2021/04/15 01:06:29;;;;;;;;;;;;;;;;;;5042149;28;19925;-64
2021/04/15 01:08:59;;;;;;;;;;;;;;;;;;5043853;28;19925;-65
2021/04/15 01:11:27;;;;;;;;;;;;;;;;;;5039582;28;19931;-66
2021/04/15 01:13:54;;;;;;;;;;;;;;;;;;5045701;28;20458;-66
2021/04/15 01:16:20;;;;;;;;;;;;;;;;;;5048697;28;20019;-66
2021/04/15 01:18:47;;;;;;;;;;;;;;;;;;5040573;28;19933;-65
2021/04/15 01:21:14;;;;;;;;;;;;;;;;;;5038446;28;20594;-66
2021/04/15 01:23:40;;;;;;;;;;;;;;;;;;5045316;28;19933;-66
2021/04/15 01:26:07;;;;;;;;;;;;;;;;;;5040907;28;19994;-66
2021/04/15 01:28:33;;;;;;;;;;;;;;;;;;5047645;28;19935;-65
2021/04/15 01:31:02;;;;;;;;;;;;;;;;;;5042763;28;20284;-66
2021/04/15 01:33:28;;;;;;;;;;;;;;;;;;5044680;28;20389;-66
2021/04/15 01:35:55;;;;;;;;;;;;;;;;;;5040671;28;20324;-66
2021/04/15 01:38:21;;;;;;;;;;;;;;;;;;5041047;28;19932;-66
2021/04/15 01:40:48;;;;;;;;;;;;;;;;;;5038210;28;19941;-66
2021/04/15 01:43:14;;;;;;;;;;;;;;;;;;5043633;28;19929;-66
2021/04/15 01:45:41;;;;;;;;;;;;;;;;;;5041229;28;19925;-66
2021/04/15 01:48:07;;;;;;;;;;;;;;;;;;5044577;28;20053;-66
2021/04/15 01:50:34;;;;;;;;;;;;;;;;;;5036612;28;20392;-66
2021/04/15 01:53:03;;;;;;;;;;;;;;;;;;5042675;28;19929;-66
2021/04/15 01:55:29;;;;;;;;;;;;;;;;;;5051231;28;20004;-66
2021/04/15 01:57:56;;;;;;;;;;;;;;;;;;5043018;28;19933;-66
2021/04/15 02:00:22;;;;;;;;;;;;;;;;;;5046512;28;19925;-65
2021/04/15 02:02:49;;;;;;;;;;;;;;;;;;5044295;28;19994;-66
2021/04/15 02:05:15;;;;;;;;;;;;;;;;;;5043919;28;20024;-65
2021/04/15 02:07:42;;;;;;;;;;;;;;;;;;5049155;28;19960;-66
2021/04/15 02:10:08;;;;;;;;;;;;;;;;;;5046102;28;20398;-65
2021/04/15 02:12:35;;;;;;;;;;;;;;;;;;5042748;28;19929;-67
2021/04/15 02:15:01;;;;;;;;;;;;;;;;;;5042800;28;19929;-66
2021/04/15 02:17:28;;;;;;;;;;;;;;;;;;5044093;28;19931;-65
2021/04/15 02:19:54;;;;;;;;;;;;;;;;;;5040304;28;19925;-66
2021/04/15 02:22:21;;;;;;;;;;;;;;;;;;5039256;28;19925;-67
2021/04/15 02:24:47;;;;;;;;;;;;;;;;;;5043196;28;20333;-66
2021/04/15 02:27:14;;;;;;;;;;;;;;;;;;5050117;28;19931;-66
2021/04/15 02:29:40;;;;;;;;;;;;;;;;;;5045169;28;19929;-66
2021/04/15 02:32:07;;;;;;;;;;;;;;;;;;5045770;28;19975;-66
2021/04/15 02:34:33;;;;;;;;;;;;;;;;;;5043832;28;20381;-66
2021/04/15 02:37:00;;;;;;;;;;;;;;;;;;5046051;28;20400;-66
2021/04/15 02:39:26;;;;;;;;;;;;;;;;;;5046756;28;19939;-66
2021/04/15 02:41:52;;;;;;;;;;;;;;;;;;5048395;28;19978;-65
2021/04/15 02:44:21;;;;;;;;;;;;;;;;;;5046116;28;19931;-68
2021/04/15 02:46:48;;;;;;;;;;;;;;;;;;5043092;28;19925;-67
2021/04/15 02:49:14;;;;;;;;;;;;;;;;;;5048422;28;20297;-67
2021/04/15 02:51:41;;;;;;;;;;;;;;;;;;5048228;28;20503;-67
2021/04/15 02:54:07;;;;;;;;;;;;;;;;;;5044895;28;19929;-65
2021/04/15 02:56:33;;;;;;;;;;;;;;;;;;5046713;28;20159;-66
2021/04/15 02:59:00;;;;;;;;;;;;;;;;;;5047166;28;19933;-66
2021/04/15 03:01:26;;;;;;;;;;;;;;;;;;5040209;28;20346;-66
2021/04/15 03:03:53;;;;;;;;;;;;;;;;;;5043551;28;20020;-65
2021/04/15 03:06:19;;;;;;;;;;;;;;;;;;5051796;28;19967;-66
2021/04/15 03:08:46;;;;;;;;;;;;;;;;;;5044507;28;19924;-66
2021/04/15 03:11:12;;;;;;;;;;;;;;;;;;5042229;28;19925;-66
2021/04/15 03:13:39;;;;;;;;;;;;;;;;;;5044346;28;19931;-66
2021/04/15 03:16:07;;;;;;;;;;;;;;;;;;5044292;28;21511;-66
2021/04/15 03:18:33;;;;;;;;;;;;;;;;;;5050611;28;20455;-67
2021/04/15 03:21:00;;;;;;;;;;;;;;;;;;5046083;28;20021;-66
2021/04/15 03:23:26;;;;;;;;;;;;;;;;;;5044949;28;19931;-65
2021/04/15 03:25:53;;;;;;;;;;;;;;;;;;5046933;28;19933;-65
2021/04/15 03:28:19;;;;;;;;;;;;;;;;;;5048808;28;20395;-65
2021/04/15 03:30:46;;;;;;;;;;;;;;;;;;5050515;28;19952;-66
2021/04/15 03:33:12;;;;;;;;;;;;;;;;;;5036880;28;20031;-66
2021/04/15 03:35:39;;;;;;;;;;;;;;;;;;5049658;28;19932;-65
2021/04/15 03:38:05;;;;;;;;;;;;;;;;;;5047903;28;19925;-65
2021/04/15 03:40:32;;;;;;;;;;;;;;;;;;5046182;28;20015;-65
2021/04/15 03:42:58;;;;;;;;;;;;;;;;;;5036466;28;19948;-66
2021/04/15 03:45:24;;;;;;;;;;;;;;;;;;5051252;28;19925;-64
2021/04/15 03:47:51;;;;;;;;;;;;;;;;;;5045673;28;19933;-64
2021/04/15 03:50:17;;;;;;;;;;;;;;;;;;5046527;28;19925;-64
2021/04/15 03:52:44;;;;;;;;;;;;;;;;;;5043077;28;19929;-65
2021/04/15 03:55:10;;;;;;;;;;;;;;;;;;5042843;28;19925;-65
2021/04/15 03:57:37;;;;;;;;;;;;;;;;;;5037871;28;19939;-65
2021/04/15 04:00:03;;;;;;;;;;;;;;;;;;5048749;28;20010;-65
2021/04/15 04:02:30;;;;;;;;;;;;;;;;;;5047888;28;20385;-67
2021/04/15 04:04:57;;;;;;;;;;;;;;;;;;5048482;28;19925;-65
2021/04/15 04:07:25;;;;;;;;;;;;;;;;;;5045135;28;20377;-65
2021/04/15 04:09:52;;;;;;;;;;;;;;;;;;5043962;28;20401;-65
2021/04/15 04:12:18;;;;;;;;;;;;;;;;;;5047309;28;19924;-65
2021/04/15 04:14:44;;;;;;;;;;;;;;;;;;5046244;28;20288;-64
2021/04/15 04:17:11;;;;;;;;;;;;;;;;;;5043030;28;20393;-66
2021/04/15 04:19:37;;;;;;;;;;;;;;;;;;5040938;28;20389;-65
2021/04/15 04:22:04;;;;;;;;;;;;;;;;;;5043928;28;19961;-65
2021/04/15 04:24:30;;;;;;;;;;;;;;;;;;5046360;28;20459;-65
2021/04/15 04:26:57;;;;;;;;;;;;;;;;;;5036764;28;19925;-65
2021/04/15 04:29:24;;;;;;;;;;;;;;;;;;5042263;28;19929;-63
2021/04/15 04:31:50;;;;;;;;;;;;;;;;;;5036027;28;19955;-64
2021/04/15 04:34:16;;;;;;;;;;;;;;;;;;5040085;28;19925;-64
2021/04/15 04:36:43;;;;;;;;;;;;;;;;;;5049198;28;20269;-64
2021/04/15 04:39:09;;;;;;;;;;;;;;;;;;5038320;28;20328;-64
2021/04/15 04:41:36;;;;;;;;;;;;;;;;;;5040320;28;20700;-65
2021/04/15 04:44:02;;;;;;;;;;;;;;;;;;5043677;28;20509;-65
2021/04/15 04:46:29;;;;;;;;;;;;;;;;;;5047155;28;20346;-65
2021/04/15 04:48:55;;;;;;;;;;;;;;;;;;5048506;28;19975;-65
2021/04/15 04:51:22;;;;;;;;;;;;;;;;;;5042298;28;19931;-64
2021/04/15 04:53:48;;;;;;;;;;;;;;;;;;5040742;28;21552;-65
2021/04/15 04:56:16;;;;;;;;;;;;;;;;;;5041496;28;20357;-66
2021/04/15 04:58:45;;;;;;;;;;;;;;;;;;5038095;28;19929;-65
2021/04/15 05:01:12;;;;;;;;;;;;;;;;;;5037890;28;19939;-64
2021/04/15 05:03:38;;;;;;;;;;;;;;;;;;5045692;28;20377;-64
2021/04/15 05:06:05;;;;;;;;;;;;;;;;;;5044382;28;19972;-65
2021/04/15 05:08:31;;;;;;;;;;;;;;;;;;5042582;28;19925;-65
2021/04/15 05:10:58;;;;;;;;;;;;;;;;;;5036928;28;20011;-65
2021/04/15 05:13:24;;;;;;;;;;;;;;;;;;5042231;28;19925;-65
2021/04/15 05:15:51;;;;;;;;;;;;;;;;;;5056576;28;20028;-64
2021/04/15 05:18:17;;;;;;;;;;;;;;;;;;5038132;28;20324;-64
2021/04/15 05:20:44;;;;;;;;;;;;;;;;;;5041904;28;19926;-66
2021/04/15 05:23:10;;;;;;;;;;;;;;;;;;5039739;28;19928;-66
2021/04/15 05:25:37;;;;;;;;;;;;;;;;;;5048720;28;19987;-66
2021/04/15 05:28:03;;;;;;;;;;;;;;;;;;5045907;28;20010;-66
2021/04/15 05:30:30;;;;;;;;;;;;;;;;;;5042702;28;20193;-64
2021/04/15 05:32:56;;;;;;;;;;;;;;;;;;5050677;28;19974;-67
2021/04/15 05:35:23;;;;;;;;;;;;;;;;;;5049745;28;19925;-64
2021/04/15 05:37:49;;;;;;;;;;;;;;;;;;5038941;28;19976;-66
2021/04/15 05:40:16;;;;;;;;;;;;;;;;;;5039418;28;19929;-65
2021/04/15 05:42:42;;;;;;;;;;;;;;;;;;5043972;28;20319;-65
2021/04/15 05:45:09;;;;;;;;;;;;;;;;;;5048641;28;19939;-65
2021/04/15 05:47:35;;;;;;;;;;;;;;;;;;5044635;28;20035;-64
2021/04/15 05:50:02;;;;;;;;;;;;;;;;;;5048323;28;19981;-65
2021/04/15 05:52:28;;;;;;;;;;;;;;;;;;5053557;28;20304;-65
2021/04/15 05:54:55;;;;;;;;;;;;;;;;;;5043229;28;20020;-64
2021/04/15 05:57:21;;;;;;;;;;;;;;;;;;5052699;28;19931;-65
2021/04/15 05:59:48;;;;;;;;;;;;;;;;;;5048615;28;19925;-65
2021/04/15 06:02:14;;;;;;;;;;;;;;;;;;5052044;28;19947;-65
2021/04/15 06:04:41;;;;;;;;;;;;;;;;;;5054176;28;19925;-65
2021/04/15 06:07:07;;;;;;;;;;;;;;;;;;5051713;28;19924;-66
2021/04/15 06:09:34;;;;;;;;;;;;;;;;;;5037378;28;19925;-65
2021/04/15 06:12:00;;;;;;;;;;;;;;;;;;5043421;28;20008;-65
2021/04/15 06:14:29;;;;;;;;;;;;;;;;;;5050265;28;20246;-65
2021/04/15 06:16:57;;;;;;;;;;;;;;;;;;5051387;28;19967;-65
2021/04/15 06:19:23;;;;;;;;;;;;;;;;;;5055088;28;19928;-66
2021/04/15 06:21:50;;;;;;;;;;;;;;;;;;5055154;28;19928;-64
2021/04/15 06:24:16;;;;;;;;;;;;;;;;;;5053955;28;19948;-63
2021/04/15 06:26:43;;;;;;;;;;;;;;;;;;5054627;28;19939;-64
2021/04/15 06:29:09;;;;;;;;;;;;;;;;;;5044290;28;19929;-64
2021/04/15 06:31:36;;;;;;;;;;;;;;;;;;5054198;28;20300;-64
2021/04/15 06:34:04;;;;;;;;;;;;;;;;;;5053285;28;19925;-64
2021/04/15 06:36:31;;;;;;;;;;;;;;;;;;5048245;28;19929;-65
2021/04/15 06:38:57;;;;;;;;;;;;;;;;;;5044507;28;19929;-65
2021/04/15 06:41:24;;;;;;;;;;;;;;;;;;5042001;28;19995;-65
2021/04/15 06:43:50;;;;;;;;;;;;;;;;;;5035238;28;20419;-65
2021/04/15 06:46:17;;;;;;;;;;;;;;;;;;5034770;28;19925;-66
2021/04/15 06:48:43;;;;;;;;;;;;;;;;;;5044465;28;20381;-64
2021/04/15 06:51:10;;;;;;;;;;;;;;;;;;5037963;28;19929;-65
2021/04/15 06:53:36;;;;;;;;;;;;;;;;;;5033195;28;19933;-65
2021/04/15 06:56:03;;;;;;;;;;;;;;;;;;5032029;28;20261;-65
2021/04/15 06:58:29;;;;;;;;;;;;;;;;;;5036388;28;19929;-66
2021/04/15 07:00:56;;;;;;;;;;;;;;;;;;5040399;28;20044;-64
2021/04/15 07:03:22;;;;;;;;;;;;;;;;;;5042229;28;19929;-65
2021/04/15 07:05:49;;;;;;;;;;;;;;;;;;5039916;28;19924;-66
2021/04/15 07:08:15;;;;;;;;;;;;;;;;;;5038921;28;19971;-66
2021/04/15 07:10:42;;;;;;;;;;;;;;;;;;5041939;28;20400;-66
2021/04/15 07:13:09;;;;;;;;;;;;;;;;;;5047516;28;19925;-66
2021/04/15 07:15:35;;;;;;;;;;;;;;;;;;5045027;28;19933;-66
2021/04/15 07:18:02;;;;;;;;;;;;;;;;;;5038319;28;19970;-66
2021/04/15 07:20:29;;;;;;;;;;;;;;;;;;5043966;28;20227;-65
2021/04/15 07:22:55;;;;;;;;;;;;;;;;;;5045525;28;19925;-65
2021/04/15 07:25:22;;;;;;;;;;;;;;;;;;5043914;28;20346;-64
2021/04/15 07:27:49;;;;;;;;;;;;;;;;;;5049296;28;19929;-65
2021/04/15 07:30:15;;;;;;;;;;;;;;;;;;5043836;28;19925;-65
2021/04/15 07:32:42;;;;;;;;;;;;;;;;;;5051627;28;20312;-66
2021/04/15 07:35:08;;;;;;;;;;;;;;;;;;5043354;28;20016;-66
2021/04/15 07:37:35;;;;;;;;;;;;;;;;;;5048013;28;20007;-65
2021/04/15 07:40:01;;;;;;;;;;;;;;;;;;5038581;28;19925;-65
2021/04/15 07:42:28;;;;;;;;;;;;;;;;;;5047539;28;20019;-65
2021/04/15 07:44:54;;;;;;;;;;;;;;;;;;5045671;28;20317;-66
2021/04/15 07:47:21;;;;;;;;;;;;;;;;;;5039275;28;19968;-66
2021/04/15 07:49:47;;;;;;;;;;;;;;;;;;5045986;28;19935;-66
2021/04/15 07:52:14;;;;;;;;;;;;;;;;;;5045055;28;19932;-65
2021/04/15 07:54:40;;;;;;;;;;;;;;;;;;5036353;28;19925;-65
2021/04/15 07:57:07;;;;;;;;;;;;;;;;;;5035104;28;19932;-65
2021/04/15 07:59:33;;;;;;;;;;;;;;;;;;5038998;28;20438;-66
2021/04/15 08:02:01;;;;;;;;;;;;;;;;;;5039760;28;19928;-65
2021/04/15 08:04:28;;;;;;;;;;;;;;;;;;5042162;28;19925;-65
2021/04/15 08:06:54;;;;;;;;;;;;;;;;;;5045028;28;20039;-64
2021/04/15 08:09:21;;;;;;;;;;;;;;;;;;5054704;28;19925;-66
2021/04/15 08:11:47;;;;;;;;;;;;;;;;;;5046853;28;20384;-63
2021/04/15 08:14:14;;;;;;;;;;;;;;;;;;5051951;28;20036;-63
2021/04/15 08:16:40;;;;;;;;;;;;;;;;;;5044637;28;19983;-62
2021/04/15 08:19:07;;;;;;;;;;;;;;;;;;5051784;28;20424;-63
2021/04/15 08:21:33;;;;;;;;;;;;;;;;;;5042024;28;20007;-64
2021/04/15 08:24:00;;;;;;;;;;;;;;;;;;5040520;28;19932;-63
2021/04/15 08:26:26;;;;;;;;;;;;;;;;;;5046570;28;19982;-63
2021/04/15 08:28:52;;;;;;;;;;;;;;;;;;5042548;28;20031;-64
2021/04/15 08:31:19;;;;;;;;;;;;;;;;;;5042973;28;19951;-64
2021/04/15 08:33:45;;;;;;;;;;;;;;;;;;5041247;28;19980;-64
2021/04/15 08:36:12;;;;;;;;;;;;;;;;;;5040498;28;19924;-64
2021/04/15 08:38:38;;;;;;;;;;;;;;;;;;5042907;28;20439;-65
2021/04/15 08:41:05;;;;;;;;;;;;;;;;;;5035696;28;19925;-63
2021/04/15 08:43:31;;;;;;;;;;;;;;;;;;5032511;28;20351;-63
2021/04/15 08:45:58;;;;;;;;;;;;;;;;;;5043108;28;19925;-63
2021/04/15 08:48:24;;;;;;;;;;;;;;;;;;5040185;28;20297;-65
2021/04/15 08:50:51;;;;;;;;;;;;;;;;;;5047241;28;19929;-64
2021/04/15 08:53:18;;;;;;;;;;;;;;;;;;5047163;28;19929;-64
2021/04/15 08:55:44;;;;;;;;;;;;;;;;;;5045767;28;19948;-64
2021/04/15 08:58:11;;;;;;;;;;;;;;;;;;5045476;28;19931;-64
2021/04/15 09:00:37;;;;;;;;;;;;;;;;;;5035495;28;20066;-65
2021/04/15 09:03:04;;;;;;;;;;;;;;;;;;5042679;28;20346;-64
2021/04/15 09:05:30;;;;;;;;;;;;;;;;;;5044044;28;20003;-65
2021/04/15 09:07:57;;;;;;;;;;;;;;;;;;5035115;28;20444;-65
2021/04/15 09:10:24;;;;;;;;;;;;;;;;;;5038927;28;19956;-64
2021/04/15 09:12:50;;;;;;;;;;;;;;;;;;5040271;28;20020;-66
2021/04/15 09:15:17;;;;;;;;;;;;;;;;;;5040200;28;20389;-64
2021/04/15 09:17:43;;;;;;;;;;;;;;;;;;5038153;28;19943;-65
2021/04/15 09:20:10;;;;;;;;;;;;;;;;;;5035631;28;19931;-64
2021/04/15 09:22:36;;;;;;;;;;;;;;;;;;5035251;28;20016;-66
2021/04/15 09:25:03;;;;;;;;;;;;;;;;;;5041502;28;19976;-63
2021/04/15 09:27:29;;;;;;;;;;;;;;;;;;5038611;28;19928;-64
2021/04/15 09:29:56;;;;;;;;;;;;;;;;;;5039483;28;20373;-64
2021/04/15 09:32:22;;;;;;;;;;;;;;;;;;5042806;28;19925;-64
2021/04/15 09:34:49;;;;;;;;;;;;;;;;;;5041388;28;19999;-64
2021/04/15 09:37:15;;;;;;;;;;;;;;;;;;5042872;28;19924;-64
2021/04/15 09:39:42;;;;;;;;;;;;;;;;;;5039325;28;19933;-63
2021/04/15 09:42:08;;;;;;;;;;;;;;;;;;5042857;28;19989;-63
2021/04/15 09:44:37;;;;;;;;;;;;;;;;;;5040292;28;19931;-65
2021/04/15 09:47:04;;;;;;;;;;;;;;;;;;5039762;28;19963;-64
2021/04/15 09:49:30;;;;;;;;;;;;;;;;;;5033864;28;19925;-65
2021/04/15 09:51:57;;;;;;;;;;;;;;;;;;5038429;28;19933;-64
2021/04/15 09:54:23;;;;;;;;;;;;;;;;;;5041344;28;20305;-64
2021/04/15 09:56:50;;;;;;;;;;;;;;;;;;5033959;28;19929;-63
2021/04/15 09:59:16;;;;;;;;;;;;;;;;;;5041972;28;20506;-66
2021/04/15 10:01:43;;;;;;;;;;;;;;;;;;5041824;28;19935;-67
2021/04/15 10:04:09;;;;;;;;;;;;;;;;;;5039953;28;20414;-65
2021/04/15 10:06:36;;;;;;;;;;;;;;;;;;5045648;28;20052;-66
2021/04/15 10:09:02;;;;;;;;;;;;;;;;;;5045395;28;19928;-65
2021/04/15 10:11:29;;;;;;;;;;;;;;;;;;5043022;28;20015;-66
2021/04/15 10:13:55;;;;;;;;;;;;;;;;;;5067641;22;19931;-67
2021/04/15 10:16:22;;;;;;;;;;;;;;;;;;5081652;28;20016;-66
2021/04/15 10:18:49;;;;;;;;;;;;;;;;;;5082914;28;19931;-66
2021/04/15 10:21:16;;;;;;;;;;;;;;;;;;5085765;28;20352;-66
2021/04/15 10:23:42;;;;;;;;;;;;;;;;;;5086377;28;19928;-67
2021/04/15 10:26:09;;;;;;;;;;;;;;;;;;5080757;28;20080;-66
2021/04/15 10:28:35;;;;;;;;;;;;;;;;;;5080826;28;19957;-67
2021/04/15 10:31:02;;;;;;;;;;;;;;;;;;5086256;28;19924;-67
2021/04/15 10:33:31;;;;;;;;;;;;;;;;;;5085613;28;20615;-66
2021/04/15 10:35:58;;;;;;;;;;;;;;;;;;5080871;28;20011;-66
2021/04/15 10:38:25;;;;;;;;;;;;;;;;;;5076435;28;19931;-66
2021/04/15 10:40:51;;;;;;;;;;;;;;;;;;5084226;28;19931;-66
2021/04/15 10:43:18;;;;;;;;;;;;;;;;;;5089566;28;20356;-65
2021/04/15 10:45:44;;;;;;;;;;;;;;;;;;5088357;28;20411;-66
2021/04/15 10:48:10;;;;;;;;;;;;;;;;;;5081626;28;19977;-65
2021/04/15 10:50:37;;;;;;;;;;;;;;;;;;5084495;28;19924;-66
2021/04/15 10:53:04;;;;;;;;;;;;;;;;;;5086661;28;19960;-65
2021/04/15 10:55:30;;;;;;;;;;;;;;;;;;5088852;28;19931;-65
2021/04/15 10:57:57;;;;;;;;;;;;;;;;;;5081882;28;19982;-66
2021/04/15 11:00:23;;;;;;;;;;;;;;;;;;5089108;28;20006;-66
2021/04/15 11:02:50;;;;;;;;;;;;;;;;;;5090271;28;20510;-66
2021/04/15 11:05:16;;;;;;;;;;;;;;;;;;5090117;28;19970;-66
2021/04/15 11:07:43;;;;;;;;;;;;;;;;;;5083163;28;19991;-66
2021/04/15 11:10:09;;;;;;;;;;;;;;;;;;5080912;28;20016;-66
2021/04/15 11:12:36;;;;;;;;;;;;;;;;;;5085967;28;20011;-66
2021/04/15 11:15:02;;;;;;;;;;;;;;;;;;5087132;28;20363;-66
2021/04/15 11:17:29;;;;;;;;;;;;;;;;;;5086116;28;19924;-66
2021/04/15 11:19:55;;;;;;;;;;;;;;;;;;5083637;28;19924;-66
2021/04/15 11:22:22;;;;;;;;;;;;;;;;;;5089081;28;20380;-66
2021/04/15 11:24:48;;;;;;;;;;;;;;;;;;5086943;28;20019;-66
2021/04/15 11:27:15;;;;;;;;;;;;;;;;;;5086828;28;19929;-66
2021/04/15 11:29:42;;;;;;;;;;;;;;;;;;5089886;28;20001;-65
2021/04/15 11:32:09;;;;;;;;;;;;;;;;;;5088288;28;19936;-66
2021/04/15 11:34:35;;;;;;;;;;;;;;;;;;5084689;28;20433;-66
2021/04/15 11:37:02;;;;;;;;;;;;;;;;;;5084607;28;19924;-66
2021/04/15 11:39:28;;;;;;;;;;;;;;;;;;5089747;28;19932;-66
2021/04/15 11:41:55;;;;;;;;;;;;;;;;;;5088646;28;20411;-66
2021/04/15 11:44:21;;;;;;;;;;;;;;;;;;5087799;28;19977;-66
2021/04/15 11:46:48;;;;;;;;;;;;;;;;;;5082392;28;20057;-66
2021/04/15 11:49:15;;;;;;;;;;;;;;;;;;5084298;28;19924;-66
2021/04/15 11:51:41;;;;;;;;;;;;;;;;;;5087049;28;20414;-66
2021/04/15 11:54:08;;;;;;;;;;;;;;;;;;5087981;28;19924;-66
2021/04/15 11:56:34;;;;;;;;;;;;;;;;;;5084008;28;19954;-66
2021/04/15 11:59:01;;;;;;;;;;;;;;;;;;5085860;28;20023;-66
2021/04/15 12:01:27;;;;;;;;;;;;;;;;;;5088661;28;19924;-66
2021/04/15 12:03:54;;;;;;;;;;;;;;;;;;5086195;28;20027;-66
2021/04/15 12:06:20;;;;;;;;;;;;;;;;;;5084171;28;19932;-66
2021/04/15 12:08:47;;;;;;;;;;;;;;;;;;5077811;28;20514;-66
2021/04/15 12:11:14;;;;;;;;;;;;;;;;;;5082491;28;19924;-66
2021/04/15 12:13:40;;;;;;;;;;;;;;;;;;5089605;28;19924;-66
2021/04/15 12:16:07;;;;;;;;;;;;;;;;;;5085496;28;19978;-66
2021/04/15 12:18:33;;;;;;;;;;;;;;;;;;5079105;28;19985;-66
2021/04/15 12:21:00;;;;;;;;;;;;;;;;;;5081915;28;19981;-66
2021/04/15 12:23:26;;;;;;;;;;;;;;;;;;5079961;28;20276;-66
2021/04/15 12:25:53;;;;;;;;;;;;;;;;;;5080750;28;19932;-66
2021/04/15 12:28:19;;;;;;;;;;;;;;;;;;5081458;28;20027;-66
2021/04/15 12:30:46;;;;;;;;;;;;;;;;;;5081967;28;19925;-66
2021/04/15 12:33:12;;;;;;;;;;;;;;;;;;5084863;28;19977;-66
2021/04/15 12:35:42;;;;;;;;;;;;;;;;;;5076455;28;19925;-66
2021/04/15 12:38:09;;;;;;;;;;;;;;;;;;5079259;28;20280;-67
2021/04/15 12:40:35;;;;;;;;;;;;;;;;;;5081204;28;19950;-67
2021/04/15 12:43:01;;;;;;;;;;;;;;;;;;5082133;28;19954;-67
2021/04/15 12:45:28;;;;;;;;;;;;;;;;;;5082654;28;20288;-66
2021/04/15 12:47:54;;;;;;;;;;;;;;;;;;5083592;28;19969;-66
2021/04/15 12:50:21;;;;;;;;;;;;;;;;;;5086596;28;19931;-66
2021/04/15 12:52:47;;;;;;;;;;;;;;;;;;5077851;28;20376;-67
2021/04/15 12:55:15;;;;;;;;;;;;;;;;;;5075864;28;19925;-66
2021/04/15 12:57:41;;;;;;;;;;;;;;;;;;5079179;28;19924;-66
2021/04/15 13:00:08;;;;;;;;;;;;;;;;;;5079795;28;20031;-66
2021/04/15 13:02:35;;;;;;;;;;;;;;;;;;5079971;28;20291;-66
2021/04/15 13:05:02;;;;;;;;;;;;;;;;;;5085093;28;19982;-66
2021/04/15 13:07:28;;;;;;;;;;;;;;;;;;5078986;28;19924;-66
2021/04/15 13:09:55;;;;;;;;;;;;;;;;;;5086127;28;20065;-66
2021/04/15 13:12:21;;;;;;;;;;;;;;;;;;5082873;28;19976;-67
2021/04/15 13:14:48;;;;;;;;;;;;;;;;;;5087369;28;19929;-67
2021/04/15 13:17:14;;;;;;;;;;;;;;;;;;5077883;28;20023;-67
2021/04/15 13:19:41;;;;;;;;;;;;;;;;;;5088786;28;19931;-66
2021/04/15 13:22:07;;;;;;;;;;;;;;;;;;5087453;28;20392;-67
2021/04/15 13:24:37;;;;;;;;;;;;;;;;;;5085089;28;19931;-66
2021/04/15 13:27:03;;;;;;;;;;;;;;;;;;5077074;28;20138;-67
2021/04/15 13:29:33;;;;;;;;;;;;;;;;;;5083345;28;20031;-66
2021/04/15 13:31:59;;;;;;;;;;;;;;;;;;5085298;28;19969;-66
2021/04/15 13:34:26;;;;;;;;;;;;;;;;;;5087639;28;19963;-67
2021/04/15 13:36:53;;;;;;;;;;;;;;;;;;5083866;28;19928;-68
2021/04/15 13:39:20;;;;;;;;;;;;;;;;;;5084582;28;19924;-67
2021/04/15 13:41:46;;;;;;;;;;;;;;;;;;5080578;28;20026;-66
2021/04/15 13:44:13;;;;;;;;;;;;;;;;;;5090073;28;20338;-66
2021/04/15 13:46:43;;;;;;;;;;;;;;;;;;5084683;28;19939;-65
2021/04/15 13:49:11;;;;;;;;;;;;;;;;;;5093193;28;20379;-66
2021/04/15 13:51:40;;;;;;;;;;;;;;;;;;5090689;28;19924;-67
2021/04/15 13:54:07;;;;;;;;;;;;;;;;;;5089208;28;19931;-67
2021/04/15 13:56:33;;;;;;;;;;;;;;;;;;5085452;28;20030;-67
2021/04/15 13:59:00;;;;;;;;;;;;;;;;;;5083071;28;20353;-67
2021/04/15 14:01:26;;;;;;;;;;;;;;;;;;5089760;28;19924;-67
2021/04/15 14:03:53;;;;;;;;;;;;;;;;;;5091554;28;19976;-67
2021/04/15 14:06:19;;;;;;;;;;;;;;;;;;5087798;28;19924;-66
2021/04/15 14:08:46;;;;;;;;;;;;;;;;;;5082009;28;19931;-67
2021/04/15 14:11:12;;;;;;;;;;;;;;;;;;5076480;28;19964;-66
2021/04/15 14:13:39;;;;;;;;;;;;;;;;;;5084493;28;20332;-66
2021/04/15 14:16:05;;;;;;;;;;;;;;;;;;5084164;28;19932;-66
2021/04/15 14:18:32;;;;;;;;;;;;;;;;;;5085908;28;19924;-67
2021/04/15 14:20:58;;;;;;;;;;;;;;;;;;5085622;28;19924;-66
2021/04/15 14:23:28;;;;;;;;;;;;;;;;;;5083052;28;19925;-67
2021/04/15 14:25:54;;;;;;;;;;;;;;;;;;5082864;28;19924;-67
2021/04/15 14:28:21;;;;;;;;;;;;;;;;;;5079951;28;20427;-67
2021/04/15 14:30:47;;;;;;;;;;;;;;;;;;5084630;28;20068;-67
2021/04/15 14:33:14;;;;;;;;;;;;;;;;;;5079769;28;19929;-67
2021/04/15 14:35:40;;;;;;;;;;;;;;;;;;5078873;28;19943;-66
2021/04/15 14:38:07;;;;;;;;;;;;;;;;;;5078741;28;20035;-67
2021/04/15 14:40:34;;;;;;;;;;;;;;;;;;5087309;28;19978;-67
2021/04/15 14:43:00;;;;;;;;;;;;;;;;;;5083265;28;19931;-67
2021/04/15 14:45:26;;;;;;;;;;;;;;;;;;5082574;28;19932;-67
2021/04/15 14:47:55;;;;;;;;;;;;;;;;;;5085955;28;19932;-67
2021/04/15 14:50:23;;;;;;;;;;;;;;;;;;5079054;28;19924;-67
2021/04/15 14:52:50;;;;;;;;;;;;;;;;;;5079060;28;19932;-67
2021/04/15 14:55:16;;;;;;;;;;;;;;;;;;5083659;28;19924;-67
2021/04/15 14:57:43;;;;;;;;;;;;;;;;;;5084614;28;19934;-67
2021/04/15 15:00:12;;;;;;;;;;;;;;;;;;5081043;28;19976;-66
2021/04/15 15:02:39;;;;;;;;;;;;;;;;;;5083600;28;19967;-66
2021/04/15 15:05:05;;;;;;;;;;;;;;;;;;5082966;28;19928;-67
2021/04/15 15:07:32;;;;;;;;;;;;;;;;;;5084730;28;20338;-66
2021/04/15 15:09:59;;;;;;;;;;;;;;;;;;5085135;28;20022;-66
2021/04/15 15:12:25;;;;;;;;;;;;;;;;;;5085378;28;19939;-67
2021/04/15 15:14:52;;;;;;;;;;;;;;;;;;5084819;28;20369;-68
2021/04/15 15:17:19;;;;;;;;;;;;;;;;;;5082913;28;19928;-68
2021/04/15 15:19:47;;;;;;;;;;;;;;;;;;5081225;28;20017;-69
2021/04/15 15:22:14;;;;;;;;;;;;;;;;;;5084416;28;20300;-68
2021/04/15 15:24:49;;;;;;;;;;;;;;;;;;5085746;28;20346;-70
2021/04/15 15:27:16;;;;;;;;;;;;;;;;;;5083067;28;19949;-68
2021/04/15 15:29:42;;;;;;;;;;;;;;;;;;5085260;28;20044;-66
2021/04/15 15:32:09;;;;;;;;;;;;;;;;;;5084840;28;19968;-65
2021/04/15 15:34:36;;;;;;;;;;;;;;;;;;5084226;28;20011;-66
2021/04/15 15:37:02;;;;;;;;;;;;;;;;;;5082884;28;20375;-66
2021/04/15 15:39:29;;;;;;;;;;;;;;;;;;5086637;28;19931;-67
2021/04/15 15:41:56;;;;;;;;;;;;;;;;;;5085816;28;19955;-66
2021/04/15 15:44:23;;;;;;;;;;;;;;;;;;5084643;28;20398;-66
2021/04/15 15:46:50;;;;;;;;;;;;;;;;;;5084088;28;19977;-66
2021/04/15 15:49:16;;;;;;;;;;;;;;;;;;5085116;28;19946;-66
2021/04/15 15:51:44;;;;;;;;;;;;;;;;;;5083478;28;19932;-66
2021/04/15 15:54:12;;;;;;;;;;;;;;;;;;5082336;28;19964;-66
2021/04/15 15:56:39;;;;;;;;;;;;;;;;;;5082202;28;19929;-66
2021/04/15 15:59:05;;;;;;;;;;;;;;;;;;5082146;28;19935;-66
2021/04/15 16:01:32;;;;;;;;;;;;;;;;;;5085714;28;20358;-66
2021/04/15 16:03:58;;;;;;;;;;;;;;;;;;5081543;28;19932;-66
2021/04/15 16:06:25;;;;;;;;;;;;;;;;;;5078565;28;20023;-66
2021/04/15 16:08:51;;;;;;;;;;;;;;;;;;5083291;28;19938;-66
2021/04/15 16:11:18;;;;;;;;;;;;;;;;;;5083542;28;20336;-66
2021/04/15 16:13:44;;;;;;;;;;;;;;;;;;5082099;28;19930;-66
2021/04/15 16:16:11;;;;;;;;;;;;;;;;;;5109213;22;19924;-65
2021/04/15 16:18:37;;;;;;;;;;;;;;;;;;5071393;28;19956;-65
2021/04/15 16:21:04;;;;;;;;;;;;;;;;;;5079020;28;19928;-64
2021/04/15 16:23:30;;;;;;;;;;;;;;;;;;5072522;28;19964;-65
2021/04/15 16:25:57;;;;;;;;;;;;;;;;;;5067191;28;19924;-64
2021/04/15 16:28:23;;;;;;;;;;;;;;;;;;5063282;28;19948;-66
2021/04/15 16:30:50;;;;;;;;;;;;;;;;;;5063569;28;19925;-64
2021/04/15 16:33:16;;;;;;;;;;;;;;;;;;5064233;28;19931;-65
2021/04/15 16:35:43;;;;;;;;;;;;;;;;;;5064011;28;19929;-65
2021/04/15 16:38:09;;;;;;;;;;;;;;;;;;5063524;28;20007;-65
2021/04/15 16:40:36;;;;;;;;;;;;;;;;;;5066488;28;19971;-65